メインページ
METAR-TAF:

METAR-TAF

空港 :

ザウジ, マヨット

緯度: 12-48S, 経度: 045-17E, 海抜: 8m

現時点の気象観測

当レポートは23分前の17:00(UTC)に作成
の風 12kt
気温 28°C
湿度 79%
気圧 1012 hPa
視程10km以上
1,500メートル以下は雲なし、積乱雲なし

METAR: FMCZ 181700Z AUTO 18012KT CAVOK 28/24 Q1012 NOSIG

時間: 20:23 (17:23 UTC)

予報

当レポートは6時間23分前の11:00(UTC)に作成
予報は18日の 12時(UTC)から 19日の 12時(UTC)まで有効
南/南東の風 12kt
視程10km以上
高度2200ftの雲はほとんどない
高度8600ftの千切れ雲あり
高度24000ftの千切れ雲あり

TAF: FMCZ 181100Z 1812/1912 16012KT 9999 FEW022 BKN086 BKN240

4,000以上の空港の気象観測と天気予報(METAR報とTAF報)

利用可能な観測所は地図上に黄色い丸と赤い丸で示す。

丸の上にカーソルを重ねると観測所名を参照できる。

次にクリックすると気象観測と天気予報を参照できる。

マップの切り替え:黒色「×」印の緑ボタンをクリックして拡大、「-」印の緑ボタンをクリックして縮小、緑色の三角印をクリックして隣りの地図に切り替え


METAR-TAF: